Alaska Titan — WDE4789 — position and weather

sailwx.info

Track history (hours):
 
Tides and Currents Weather Stations Pressure Air Temp Water Temp Dewpoint Dewpoint Depression Visibility Wind Speed Wind Dir Waves Ship Positions

Alaska Titan

Owner: WESTERN TOWBOAT CO, Seattle, WA. More information available from US FCC via Universal Licensing System and Coast Guard Vessel Documentation Center.

Last reported at 2015-Sep-01 12:00 UTC. Time now 2015-Sep-03 15:16 UTC.
Position N 59°42' W 144°54'.

Length 40 m.

Type: Tow > 200 m length. MMSI: 367357890.

Wind from 310 at 25 knots

Waves 0.5 meters (2 feet), 3 second period

Barometer 1005.0 mb
Air temperature 16.1 ° C
Visibility: greater than 10.8 NM

Date/timePositionNaut miles runAvg speedWind from/ knotsBaromVisibWave heightAir tempDewpointWater temp
2015-Sep-01 12:00N 59°42' W 144°54'46 7.7 310 / 251005.010.8 0.516.1
2015-Sep-01 06:00N 59°24' W 146°18'19616.3 270 / 181001.010.8 0.513.9
2015-Aug-31 18:00N 59°18' W 139°54'53 8.8 100 / 15994.010.8 0.512.8
2015-Aug-31 12:00N 58°48' W 138°30'53 8.9 100 / 20990.5 5.4 0.515.7
2015-Aug-31 06:00N 58°18' W 137°06'31 7.0 180 / 7987.0 5.4 10.0
2015-Aug-31 01:33N 58°15' W 136°07'1212.4
2015-Aug-31 00:34N 58°18' W 135°44'  
2015-Aug-28 12:25N 51°14' W 127°52'8 9.4
2015-Aug-28 11:33N 51°07' W 127°46'1010.0
2015-Aug-28 10:33N 50°59' W 127°35'1010.3
2015-Aug-28 09:33N 50°53' W 127°22'10 9.7
2015-Aug-28 08:33N 50°47' W 127°11'21 9.1
2015-Aug-28 06:17N 50°36' W 126°43'60 8.7
2015-Aug-27 23:26N 50°07' W 125°21'12 5.8
2015-Aug-27 21:21N 49°58' W 125°10'7 9.3
2015-Aug-27 20:33N 49°53' W 125°01'12 9.6
2015-Aug-27 19:21N 49°46' W 124°47'6 7.9
2015-Aug-27 18:33N 49°42' W 124°39'9 9.4
2015-Aug-27 17:34N 49°36' W 124°28'9 9.4
2015-Aug-27 16:33N 49°32' W 124°15'9 9.3
2015-Aug-27 15:32N 49°27' W 124°03'9 9.5
2015-Aug-27 14:33N 49°21' W 123°51'9 8.9
2015-Aug-27 13:33N 49°16' W 123°40'9 9.4
2015-Aug-27 12:33N 49°10' W 123°29'9 9.5
2015-Aug-27 11:34N 49°03' W 123°19'10 9.6
2015-Aug-27 10:33N 48°57' W 123°08'10 9.8
2015-Aug-27 09:34N 48°50' W 122°57'10 9.8
2015-Aug-27 08:34N 48°44' W 122°45'9 8.9
2015-Aug-27 07:33N 48°35' W 122°45'37 9.1
2015-Aug-27 03:30N 47°59' W 122°35'9 9.7
2015-Aug-27 02:34N 47°51' W 122°28'10 9.7
2015-Aug-27 01:34N 47°42' W 122°27'7 7.1
2015-Aug-27 00:33N 47°36' W 122°21'0 0.4
2015-Aug-26 23:33N 47°35' W 122°21'0 0.0
2015-Aug-26 22:33N 47°35' W 122°21'5 5.0
2015-Aug-26 21:33N 47°40' W 122°24'0 0.3
2015-Aug-26 20:34N 47°40' W 122°24'1 1.2
2015-Aug-26 19:34N 47°39' W 122°22'  
2015-Aug-24 15:33N 47°40' W 122°24'3 3.0
2015-Aug-24 14:33N 47°37' W 122°24'2 2.0
2015-Aug-24 13:33N 47°38' W 122°26'4 4.0
2015-Aug-24 12:34N 47°41' W 122°28'7 6.8
2015-Aug-24 11:33N 47°48' W 122°28'7 7.0
2015-Aug-24 10:33N 47°55' W 122°30'6 5.6
2015-Aug-24 09:33N 47°59' W 122°37'18 5.9
2015-Aug-24 06:33N 48°15' W 122°49'7 7.2
2015-Aug-24 05:33N 48°22' W 122°46'8 8.4
2015-Aug-24 04:33N 48°30' W 122°45'9 8.8
2015-Aug-24 03:33N 48°39' W 122°44'8 8.3
2015-Aug-24 02:33N 48°46' W 122°50'9 9.1
2015-Aug-24 01:34N 48°51' W 123°02'10 9.5
2015-Aug-24 00:33N 48°57' W 123°13'9 9.5
2015-Aug-23 23:34N 49°03' W 123°24'10 9.4
2015-Aug-23 22:33N 49°11' W 123°33'10 9.7
2015-Aug-23 21:33N 49°17' W 123°43'9 9.3
2015-Aug-23 20:33N 49°23' W 123°55'9 9.1
2015-Aug-23 19:34N 49°28' W 124°06'9 9.4
2015-Aug-23 18:33N 49°33' W 124°19'9 8.6
2015-Aug-23 17:33N 49°38' W 124°30'9 8.7
2015-Aug-23 16:33N 49°43' W 124°41'10 9.6
2015-Aug-23 15:32N 49°49' W 124°53'9 9.4
2015-Aug-23 14:31N 49°55' W 125°04'9 9.3
2015-Aug-23 13:34N 50°02' W 125°13'8 8.2
2015-Aug-23 12:33N 50°08' W 125°21'8 8.1
2015-Aug-23 11:33N 50°16' W 125°24'2 0.2
2015-Aug-22 23:22N 50°18' W 125°25'1011.9
2015-Aug-22 22:33N 50°09' W 125°21'1312.7
2015-Aug-22 21:33N 49°58' W 125°11'1110.7
2015-Aug-22 20:32N 49°51' W 124°58'1210.3
2015-Aug-22 19:23N 49°44' W 124°43'6 7.4
2015-Aug-22 18:33N 49°40' W 124°36'6 5.9
2015-Aug-22 17:33N 49°37' W 124°28'1010.3
2015-Aug-22 16:33N 49°32' W 124°15'1010.4
2015-Aug-22 15:33N 49°26' W 124°01'1110.6
2015-Aug-22 14:32N 49°20' W 123°47'10 9.9
2015-Aug-22 13:33N 49°14' W 123°36'10 9.6
2015-Aug-22 12:33N 49°07' W 123°26'  
Track history (hours):
 
Tides and Currents Weather Stations Pressure Air Temp Water Temp Dewpoint Dewpoint Depression Visibility Wind Speed Wind Dir Waves Ship Positions

Alaska Titan

Owner: WESTERN TOWBOAT CO, Seattle, WA. More information available from US FCC via Universal Licensing System and Coast Guard Vessel Documentation Center.

Last reported at 2015-Sep-01 12:00 UTC. Time now 2015-Sep-03 15:16 UTC.
Position N 59°42' W 144°54'.

Length 40 m.

Type: Tow > 200 m length. MMSI: 367357890.

Wind from 310 at 25 knots

Waves 0.5 meters (2 feet), 3 second period

Barometer 1005.0 mb
Air temperature 16.1 ° C
Visibility: greater than 10.8 NM

Date/timePositionNaut miles runAvg speedWind from/ knotsBaromVisibWave heightAir tempDewpointWater temp
2015-Sep-01 12:00N 59°42' W 144°54'46 7.7 310 / 251005.010.8 0.516.1
2015-Sep-01 06:00N 59°24' W 146°18'19616.3 270 / 181001.010.8 0.513.9
2015-Aug-31 18:00N 59°18' W 139°54'53 8.8 100 / 15994.010.8 0.512.8
2015-Aug-31 12:00N 58°48' W 138°30'53 8.9 100 / 20990.5 5.4 0.515.7
2015-Aug-31 06:00N 58°18' W 137°06'31 7.0 180 / 7987.0 5.4 10.0
2015-Aug-31 01:33N 58°15' W 136°07'1212.4
2015-Aug-31 00:34N 58°18' W 135°44'  
2015-Aug-28 12:25N 51°14' W 127°52'8 9.4
2015-Aug-28 11:33N 51°07' W 127°46'1010.0
2015-Aug-28 10:33N 50°59' W 127°35'1010.3
2015-Aug-28 09:33N 50°53' W 127°22'10 9.7
2015-Aug-28 08:33N 50°47' W 127°11'21 9.1
2015-Aug-28 06:17N 50°36' W 126°43'60 8.7
2015-Aug-27 23:26N 50°07' W 125°21'12 5.8
2015-Aug-27 21:21N 49°58' W 125°10'7 9.3
2015-Aug-27 20:33N 49°53' W 125°01'12 9.6
2015-Aug-27 19:21N 49°46' W 124°47'6 7.9
2015-Aug-27 18:33N 49°42' W 124°39'9 9.4
2015-Aug-27 17:34N 49°36' W 124°28'9 9.4
2015-Aug-27 16:33N 49°32' W 124°15'9 9.3
2015-Aug-27 15:32N 49°27' W 124°03'9 9.5
2015-Aug-27 14:33N 49°21' W 123°51'9 8.9
2015-Aug-27 13:33N 49°16' W 123°40'9 9.4
2015-Aug-27 12:33N 49°10' W 123°29'9 9.5
2015-Aug-27 11:34N 49°03' W 123°19'10 9.6
2015-Aug-27 10:33N 48°57' W 123°08'10 9.8
2015-Aug-27 09:34N 48°50' W 122°57'10 9.8
2015-Aug-27 08:34N 48°44' W 122°45'9 8.9
2015-Aug-27 07:33N 48°35' W 122°45'37 9.1
2015-Aug-27 03:30N 47°59' W 122°35'9 9.7
2015-Aug-27 02:34N 47°51' W 122°28'10 9.7
2015-Aug-27 01:34N 47°42' W 122°27'7 7.1
2015-Aug-27 00:33N 47°36' W 122°21'0 0.4
2015-Aug-26 23:33N 47°35' W 122°21'0 0.0
2015-Aug-26 22:33N 47°35' W 122°21'5 5.0
2015-Aug-26 21:33N 47°40' W 122°24'0 0.3
2015-Aug-26 20:34N 47°40' W 122°24'1 1.2
2015-Aug-26 19:34N 47°39' W 122°22'  
2015-Aug-24 15:33N 47°40' W 122°24'3 3.0
2015-Aug-24 14:33N 47°37' W 122°24'2 2.0
2015-Aug-24 13:33N 47°38' W 122°26'4 4.0
2015-Aug-24 12:34N 47°41' W 122°28'7 6.8
2015-Aug-24 11:33N 47°48' W 122°28'7 7.0
2015-Aug-24 10:33N 47°55' W 122°30'6 5.6
2015-Aug-24 09:33N 47°59' W 122°37'18 5.9
2015-Aug-24 06:33N 48°15' W 122°49'7 7.2
2015-Aug-24 05:33N 48°22' W 122°46'8 8.4
2015-Aug-24 04:33N 48°30' W 122°45'9 8.8
2015-Aug-24 03:33N 48°39' W 122°44'8 8.3
2015-Aug-24 02:33N 48°46' W 122°50'9 9.1
2015-Aug-24 01:34N 48°51' W 123°02'10 9.5
2015-Aug-24 00:33N 48°57' W 123°13'9 9.5
2015-Aug-23 23:34N 49°03' W 123°24'10 9.4
2015-Aug-23 22:33N 49°11' W 123°33'10 9.7
2015-Aug-23 21:33N 49°17' W 123°43'9 9.3
2015-Aug-23 20:33N 49°23' W 123°55'9 9.1
2015-Aug-23 19:34N 49°28' W 124°06'9 9.4
2015-Aug-23 18:33N 49°33' W 124°19'9 8.6
2015-Aug-23 17:33N 49°38' W 124°30'9 8.7
2015-Aug-23 16:33N 49°43' W 124°41'10 9.6
2015-Aug-23 15:32N 49°49' W 124°53'9 9.4
2015-Aug-23 14:31N 49°55' W 125°04'9 9.3
2015-Aug-23 13:34N 50°02' W 125°13'8 8.2
2015-Aug-23 12:33N 50°08' W 125°21'8 8.1
2015-Aug-23 11:33N 50°16' W 125°24'2 0.2
2015-Aug-22 23:22N 50°18' W 125°25'1011.9
2015-Aug-22 22:33N 50°09' W 125°21'1312.7
2015-Aug-22 21:33N 49°58' W 125°11'1110.7
2015-Aug-22 20:32N 49°51' W 124°58'1210.3
2015-Aug-22 19:23N 49°44' W 124°43'6 7.4
2015-Aug-22 18:33N 49°40' W 124°36'6 5.9
2015-Aug-22 17:33N 49°37' W 124°28'1010.3
2015-Aug-22 16:33N 49°32' W 124°15'1010.4
2015-Aug-22 15:33N 49°26' W 124°01'1110.6
2015-Aug-22 14:32N 49°20' W 123°47'10 9.9
2015-Aug-22 13:33N 49°14' W 123°36'10 9.6
2015-Aug-22 12:33N 49°07' W 123°26'  

Dump ship's entire track history